Time;durP1;ratioP1;P1;durP2;ratioP2;P2;SDS_P1;SDS_P2;PMS_P1;PMS_P2;Temp;Humidity;BMP_temperature;BMP_pressure;BME280_temperature;BME280_humidity;BME280_pressure;Samples;Min_cycle;Max_cycle;Signal;HPM_P1;HPM_P2
2023/07/01 00:01:32;;;;;;;2.60;1.80;;;17.20;99.90;;;;;;5078916;28;20040;-72
2023/07/01 00:03:57;;;;;;;4.68;1.67;;;17.20;99.90;;;;;;5084229;28;20062;-71
2023/07/01 00:06:23;;;;;;;3.63;1.75;;;17.20;99.90;;;;;;5078017;28;20376;-72
2023/07/01 00:08:49;;;;;;;4.15;2.05;;;17.20;99.90;;;;;;5089192;28;20048;-71
2023/07/01 00:11:14;;;;;;;3.60;1.80;;;17.20;99.90;;;;;;5075645;28;20076;-71
2023/07/01 00:13:40;;;;;;;5.00;2.00;;;17.30;99.90;;;;;;5076033;28;20040;-71
2023/07/01 00:16:06;;;;;;;5.22;1.90;;;17.30;99.90;;;;;;5075383;28;20375;-72
2023/07/01 00:18:32;;;;;;;3.80;1.75;;;17.30;99.90;;;;;;5082653;28;20453;-71
2023/07/01 00:20:57;;;;;;;5.35;2.13;;;17.30;99.90;;;;;;5074885;28;20346;-72
2023/07/01 00:23:24;;;;;;;4.40;1.73;;;17.30;99.90;;;;;;5080668;28;20033;-71
2023/07/01 00:25:50;;;;;;;5.88;1.90;;;17.30;99.90;;;;;;5072756;28;20106;-72
2023/07/01 00:28:15;;;;;;;4.65;1.60;;;17.30;99.90;;;;;;5062471;28;20086;-72
2023/07/01 00:30:41;;;;;;;5.72;1.90;;;17.30;99.90;;;;;;5077087;28;20086;-71
2023/07/01 00:33:07;;;;;;;4.00;1.80;;;17.30;99.90;;;;;;5072786;28;20052;-72
2023/07/01 00:35:33;;;;;;;3.83;1.83;;;17.30;99.90;;;;;;5081591;28;20036;-71
2023/07/01 00:37:59;;;;;;;4.45;1.67;;;17.30;99.90;;;;;;5082487;28;20369;-72
2023/07/01 00:40:25;;;;;;;3.55;1.90;;;17.30;99.90;;;;;;5093156;28;20044;-72
2023/07/01 00:42:50;;;;;;;3.92;1.58;;;17.30;99.90;;;;;;5072446;28;20068;-71
2023/07/01 00:45:16;;;;;;;3.97;1.80;;;17.30;99.90;;;;;;5077358;28;20044;-72
2023/07/01 00:47:42;;;;;;;4.07;1.70;;;17.30;99.90;;;;;;5082266;28;20041;-71
2023/07/01 00:50:12;;;;;;;3.30;1.60;;;17.30;99.90;;;;;;5084940;28;20384;-72
2023/07/01 00:52:39;;;;;;;3.25;1.55;;;17.30;99.90;;;;;;5081021;28;20071;-72
2023/07/01 00:55:06;;;;;;;3.35;1.40;;;17.30;99.90;;;;;;5075740;28;20123;-71
2023/07/01 00:57:33;;;;;;;3.47;1.60;;;17.30;99.90;;;;;;5076425;28;20476;-71
2023/07/01 01:00:04;;;;;;;3.20;1.58;;;17.30;99.90;;;;;;5084708;28;20058;-71
2023/07/01 01:02:51;;;;;;;3.47;1.77;;;17.40;99.90;;;;;;5081839;28;20044;-71
2023/07/01 01:05:21;;;;;;;3.85;1.60;;;17.40;99.90;;;;;;5071893;28;20052;-71
2023/07/01 01:08:08;;;;;;;3.20;1.50;;;17.40;99.90;;;;;;5078875;28;20477;-72
2023/07/01 01:10:37;;;;;;;4.68;1.80;;;17.50;99.90;;;;;;5096727;28;20036;-72
2023/07/01 01:13:04;;;;;;;3.80;1.80;;;17.50;99.90;;;;;;5096334;28;20074;-71
2023/07/01 01:15:30;;;;;;;4.07;1.67;;;17.50;99.90;;;;;;5077929;28;20085;-73
2023/07/01 01:17:59;;;;;;;3.60;1.70;;;17.50;99.90;;;;;;5075638;28;20037;-71
2023/07/01 01:20:30;;;;;;;3.60;1.58;;;17.50;99.90;;;;;;5082286;28;20107;-72
2023/07/01 01:23:00;;;;;;;5.88;2.15;;;17.50;99.90;;;;;;5084617;28;20094;-73
2023/07/01 01:25:45;;;;;;;4.70;1.98;;;17.50;99.90;;;;;;5090924;28;20064;-73
2023/07/01 01:28:12;;;;;;;3.42;1.90;;;17.60;99.90;;;;;;5078608;28;20084;-72
2023/07/01 01:30:38;;;;;;;5.72;1.70;;;17.50;99.90;;;;;;5075853;28;20512;-71
2023/07/01 01:33:05;;;;;;;5.30;1.90;;;17.50;99.90;;;;;;5077487;28;20076;-71
2023/07/01 01:35:32;;;;;;;3.30;1.80;;;17.60;99.90;;;;;;5081062;28;20041;-72
2023/07/01 01:38:28;;;;;;;4.05;1.92;;;17.60;99.90;;;;;;5086428;28;20036;-73
2023/07/01 01:41:06;;;;;;;5.63;2.00;;;17.60;99.90;;;;;;5059112;28;20068;-73
2023/07/01 01:44:00;;;;;;;3.55;1.70;;;17.70;99.90;;;;;;5075468;28;20033;-72
2023/07/01 01:46:26;;;;;;;4.30;2.05;;;17.60;99.90;;;;;;5088869;28;20434;-73
2023/07/01 01:48:56;;;;;;;5.15;2.15;;;17.70;99.90;;;;;;5087566;28;20075;-74
2023/07/01 01:51:24;;;;;;;3.28;2.20;;;17.80;99.90;;;;;;5075462;28;20043;-75
2023/07/01 01:53:52;;;;;;;3.38;1.88;;;17.80;99.90;;;;;;5075364;28;20052;-74
2023/07/01 01:56:19;;;;;;;4.47;2.30;;;17.70;99.90;;;;;;5078630;28;20048;-74
2023/07/01 01:58:47;;;;;;;5.68;2.47;;;17.80;99.90;;;;;;5073833;28;20488;-73
2023/07/01 02:01:13;;;;;;;3.85;2.15;;;17.70;99.90;;;;;;5081159;28;20039;-76
2023/07/01 02:03:39;;;;;;;3.17;1.80;;;17.70;99.90;;;;;;5073823;28;20056;-73
2023/07/01 02:06:05;;;;;;;5.55;2.15;;;17.70;99.90;;;;;;5093935;28;20499;-74
2023/07/01 02:08:30;;;;;;;2.65;2.20;;;17.70;99.90;;;;;;5095151;28;20036;-73
2023/07/01 02:10:57;;;;;;;3.25;2.33;;;17.60;99.90;;;;;;5078103;28;20036;-73
2023/07/01 02:13:23;;;;;;;5.30;2.22;;;17.50;99.90;;;;;;5080014;28;20080;-73
2023/07/01 02:15:49;;;;;;;4.70;2.45;;;17.40;99.90;;;;;;5079393;28;20080;-73
2023/07/01 02:18:14;;;;;;;3.20;2.30;;;17.30;99.90;;;;;;5093330;28;20040;-73
2023/07/01 02:20:40;;;;;;;3.58;2.40;;;17.20;99.90;;;;;;5084537;28;20462;-73
2023/07/01 02:23:06;;;;;;;2.75;2.20;;;17.20;99.90;;;;;;5073797;28;20043;-74
2023/07/01 02:25:32;;;;;;;3.88;2.42;;;17.20;99.90;;;;;;5081541;28;20035;-74
2023/07/01 02:27:58;;;;;;;4.47;2.40;;;17.10;99.90;;;;;;5077347;28;20160;-72
2023/07/01 02:30:23;;;;;;;3.72;2.50;;;17.10;99.90;;;;;;5074205;28;20048;-72
2023/07/01 02:32:49;;;;;;;3.88;2.35;;;17.00;99.90;;;;;;5083918;28;20075;-73
2023/07/01 02:35:15;;;;;;;4.15;2.40;;;17.00;99.90;;;;;;5082421;28;20043;-72
2023/07/01 02:37:40;;;;;;;4.00;2.50;;;16.90;99.90;;;;;;5088233;28;20082;-73
2023/07/01 02:40:07;;;;;;;4.65;2.50;;;16.80;99.90;;;;;;5066510;28;20539;-73
2023/07/01 02:42:32;;;;;;;5.65;2.60;;;16.60;99.90;;;;;;5074650;28;20044;-73
2023/07/01 02:44:58;;;;;;;3.25;2.33;;;16.50;99.90;;;;;;5090904;28;20062;-74
2023/07/01 02:47:24;;;;;;;4.25;2.65;;;16.40;99.90;;;;;;5074439;28;20040;-74
2023/07/01 02:49:49;;;;;;;4.90;2.58;;;16.30;99.90;;;;;;5074339;28;20106;-72
2023/07/01 02:52:17;;;;;;;4.30;2.53;;;16.30;99.90;;;;;;5084671;28;20058;-74
2023/07/01 02:54:43;;;;;;;4.32;2.38;;;16.30;99.90;;;;;;5081475;28;20035;-73
2023/07/01 02:57:10;;;;;;;4.45;2.40;;;16.30;99.90;;;;;;5077541;28;20036;-72
2023/07/01 02:59:36;;;;;;;4.53;2.50;;;16.30;99.90;;;;;;5087409;28;20044;-73
2023/07/01 03:02:06;;;;;;;4.25;2.70;;;16.30;99.90;;;;;;5083802;28;20476;-72
2023/07/01 03:04:33;;;;;;;3.72;2.35;;;16.30;99.90;;;;;;5085369;28;20032;-73
2023/07/01 03:06:59;;;;;;;3.88;2.65;;;16.30;99.90;;;;;;5088963;28;20044;-73
2023/07/01 03:09:25;;;;;;;4.22;2.35;;;16.30;99.90;;;;;;5087877;28;20376;-73
2023/07/01 03:11:52;;;;;;;3.80;2.33;;;16.30;99.90;;;;;;5078112;28;20488;-73
2023/07/01 03:14:18;;;;;;;3.30;2.00;;;16.40;99.90;;;;;;5073842;28;20049;-71
2023/07/01 03:16:44;;;;;;;3.17;2.40;;;16.40;99.90;;;;;;5073878;28;20068;-73
2023/07/01 03:19:10;;;;;;;5.15;2.38;;;16.50;99.90;;;;;;5076956;28;20379;-73
2023/07/01 03:21:37;;;;;;;3.00;2.40;;;16.50;99.90;;;;;;5090585;28;20032;-73
2023/07/01 03:24:03;;;;;;;5.05;2.50;;;16.60;99.90;;;;;;5079616;28;20123;-73
2023/07/01 03:26:29;;;;;;;5.15;2.42;;;16.60;99.90;;;;;;5079955;28;20040;-73
2023/07/01 03:28:54;;;;;;;4.05;2.55;;;16.50;99.90;;;;;;5072443;28;20500;-74
2023/07/01 03:31:21;;;;;;;4.13;2.28;;;16.50;99.90;;;;;;5080086;28;20035;-73
2023/07/01 03:33:47;;;;;;;5.05;2.28;;;16.40;99.90;;;;;;5081967;28;20032;-73
2023/07/01 03:36:13;;;;;;;5.50;2.40;;;16.30;99.90;;;;;;5082000;28;20082;-74
2023/07/01 03:38:39;;;;;;;4.53;2.50;;;16.30;99.90;;;;;;5080291;28;20046;-74
2023/07/01 03:41:06;;;;;;;4.30;2.42;;;16.30;99.90;;;;;;5072291;28;20037;-74
2023/07/01 03:43:32;;;;;;;4.65;2.25;;;16.20;99.90;;;;;;5078251;28;20067;-72
2023/07/01 03:45:58;;;;;;;4.65;2.17;;;16.20;99.90;;;;;;5084188;28;20094;-71
2023/07/01 03:48:24;;;;;;;4.13;2.10;;;16.10;99.90;;;;;;5077720;28;20464;-73
2023/07/01 03:50:50;;;;;;;4.10;2.47;;;16.00;99.90;;;;;;5072433;28;20401;-73
2023/07/01 03:53:16;;;;;;;3.88;2.80;;;15.80;99.90;;;;;;5076484;28;20051;-75
2023/07/01 03:55:41;;;;;;;3.65;2.42;;;15.70;99.90;;;;;;5072340;28;20047;-74
2023/07/01 03:58:07;;;;;;;3.83;2.75;;;15.60;99.90;;;;;;5073285;28;20036;-73
2023/07/01 04:00:33;;;;;;;3.95;2.50;;;15.60;99.90;;;;;;5072991;28;20396;-72
2023/07/01 04:03:05;;;;;;;4.88;2.80;;;15.50;99.90;;;;;;5072788;28;20052;-74
2023/07/01 04:05:34;;;;;;;4.55;2.80;;;15.60;99.90;;;;;;5077618;28;20472;-73
2023/07/01 04:08:00;;;;;;;5.13;2.95;;;15.60;99.90;;;;;;5072992;28;20036;-73
2023/07/01 04:10:26;;;;;;;3.47;2.75;;;15.60;99.90;;;;;;5086888;28;20039;-73
2023/07/01 04:12:52;;;;;;;3.65;2.38;;;15.60;99.90;;;;;;5074226;28;20461;-74
2023/07/01 04:15:17;;;;;;;6.15;2.78;;;15.70;99.90;;;;;;5073229;28;20046;-73
2023/07/01 04:17:48;;;;;;;5.60;2.88;;;15.60;99.90;;;;;;5072702;28;20416;-74
2023/07/01 04:20:14;;;;;;;4.30;3.00;;;15.40;99.90;;;;;;5072826;28;20078;-73
2023/07/01 04:22:41;;;;;;;5.97;3.25;;;15.20;99.90;;;;;;5078593;28;20081;-72
2023/07/01 04:25:08;;;;;;;5.40;3.20;;;15.20;99.90;;;;;;5087173;28;20047;-73
2023/07/01 04:27:34;;;;;;;6.50;3.45;;;15.00;99.90;;;;;;5073419;28;20060;-73
2023/07/01 04:30:00;;;;;;;5.68;3.13;;;15.00;99.90;;;;;;5073023;28;20561;-73
2023/07/01 04:32:26;;;;;;;4.13;3.15;;;14.90;99.90;;;;;;5073034;28;20481;-74
2023/07/01 04:34:53;;;;;;;5.78;3.08;;;14.90;99.90;;;;;;5071939;28;20036;-73
2023/07/01 04:37:19;;;;;;;5.57;3.03;;;14.90;99.90;;;;;;5082752;28;20109;-73
2023/07/01 04:39:45;;;;;;;5.93;3.05;;;14.80;99.90;;;;;;5081000;28;20032;-73
2023/07/01 04:42:10;;;;;;;4.75;2.90;;;14.80;99.90;;;;;;5081284;28;20479;-73
2023/07/01 04:44:36;;;;;;;4.97;3.10;;;14.80;99.90;;;;;;5071242;28;20048;-72
2023/07/01 04:47:02;;;;;;;7.22;3.25;;;14.80;99.90;;;;;;5082388;28;20039;-73
2023/07/01 04:49:27;;;;;;;5.07;3.30;;;14.80;99.90;;;;;;5085362;28;20125;-71
2023/07/01 04:51:53;;;;;;;4.97;3.20;;;14.80;99.90;;;;;;5073048;28;20469;-72
2023/07/01 04:54:19;;;;;;;5.25;3.55;;;14.90;99.90;;;;;;5072461;28;20505;-72
2023/07/01 04:56:44;;;;;;;6.60;3.20;;;14.90;99.90;;;;;;5078944;28;20071;-71
2023/07/01 04:59:10;;;;;;;4.93;3.15;;;14.90;99.90;;;;;;5084548;28;20372;-70
2023/07/01 05:01:36;;;;;;;7.00;3.08;;;14.90;99.90;;;;;;5078801;28;20036;-72
2023/07/01 05:04:01;;;;;;;5.13;3.08;;;14.90;99.90;;;;;;5074651;28;20031;-72
2023/07/01 05:06:27;;;;;;;5.22;3.30;;;14.90;99.90;;;;;;5073937;28;20044;-71
2023/07/01 05:08:53;;;;;;;4.97;3.22;;;14.90;99.90;;;;;;5071958;28;20526;-71
2023/07/01 05:11:19;;;;;;;5.47;3.10;;;14.90;99.90;;;;;;5072502;28;20044;-71
2023/07/01 05:13:45;;;;;;;3.90;2.72;;;15.00;99.90;;;;;;5076955;28;20457;-72
2023/07/01 05:16:11;;;;;;;5.20;2.90;;;15.00;99.90;;;;;;5081000;28;20054;-71
2023/07/01 05:18:37;;;;;;;4.43;2.70;;;15.10;99.90;;;;;;5054731;28;20123;-72
2023/07/01 05:21:03;;;;;;;7.30;2.97;;;15.20;99.90;;;;;;5070861;28;20041;-72
2023/07/01 05:23:29;;;;;;;4.95;3.33;;;15.30;99.90;;;;;;5071095;28;20036;-72
2023/07/01 05:25:54;;;;;;;5.40;3.55;;;15.30;99.90;;;;;;5075580;28;20139;-73
2023/07/01 05:28:20;;;;;;;5.53;3.15;;;15.30;99.90;;;;;;5071963;28;20056;-70
2023/07/01 05:30:46;;;;;;;7.53;3.35;;;15.30;99.90;;;;;;5072061;28;20052;-72
2023/07/01 05:33:12;;;;;;;5.20;2.85;;;15.30;99.90;;;;;;5072215;28;20102;-74
2023/07/01 05:35:38;;;;;;;5.10;3.40;;;15.30;99.90;;;;;;5074682;28;20040;-72
2023/07/01 05:38:11;;;;;;;4.93;2.88;;;15.40;99.90;;;;;;5089859;28;20429;-71
2023/07/01 05:40:37;;;;;;;5.82;3.00;;;15.40;99.90;;;;;;5089215;28;20036;-71
2023/07/01 05:43:03;;;;;;;4.50;3.10;;;15.50;99.90;;;;;;5090212;28;20675;-73
2023/07/01 05:45:29;;;;;;;3.97;2.97;;;15.50;99.90;;;;;;5075615;28;20036;-74
2023/07/01 05:47:55;;;;;;;4.38;2.80;;;15.60;99.90;;;;;;5075546;28;20040;-74
2023/07/01 05:50:21;;;;;;;3.55;2.75;;;15.60;99.90;;;;;;5077255;28;20051;-72
2023/07/01 05:52:47;;;;;;;3.60;2.72;;;15.70;99.90;;;;;;5086105;28;20033;-71
2023/07/01 05:55:12;;;;;;;4.85;3.15;;;15.70;99.90;;;;;;5084813;28;20393;-72
2023/07/01 05:57:38;;;;;;;3.67;2.88;;;15.70;99.90;;;;;;5087182;28;20070;-74
2023/07/01 06:00:05;;;;;;;4.18;2.80;;;15.80;99.90;;;;;;5095898;28;20043;-72
2023/07/01 06:02:31;;;;;;;5.00;2.50;;;15.80;99.90;;;;;;5083963;28;20423;-72
2023/07/01 06:04:56;;;;;;;5.13;2.92;;;15.90;99.90;;;;;;5074905;28;20036;-71
2023/07/01 06:07:23;;;;;;;3.83;2.95;;;15.80;99.90;;;;;;5077162;28;20368;-71
2023/07/01 06:09:49;;;;;;;5.47;2.72;;;15.90;99.90;;;;;;5084003;28;20396;-71
2023/07/01 06:12:15;;;;;;;6.40;2.78;;;15.90;99.90;;;;;;5094110;28;20101;-70
2023/07/01 06:14:42;;;;;;;3.50;2.53;;;15.90;99.90;;;;;;5091439;28;20040;-71
2023/07/01 06:17:07;;;;;;;5.75;3.13;;;15.90;99.90;;;;;;5087113;28;20032;-71
2023/07/01 06:19:33;;;;;;;4.35;2.95;;;16.00;99.90;;;;;;5087395;28;20054;-72
2023/07/01 06:21:58;;;;;;;4.75;2.92;;;16.00;99.90;;;;;;5094937;28;20044;-72
2023/07/01 06:24:24;;;;;;;4.32;3.30;;;15.90;99.90;;;;;;5075459;28;20501;-72
2023/07/01 06:26:50;;;;;;;5.38;3.20;;;15.90;99.90;;;;;;5095015;28;20384;-72
2023/07/01 06:29:16;;;;;;;4.70;3.67;;;15.90;99.90;;;;;;5094699;28;20052;-72
2023/07/01 06:31:42;;;;;;;5.38;3.72;;;15.90;99.90;;;;;;5086275;28;20045;-67
2023/07/01 06:34:13;;;;;;;6.07;3.63;;;15.80;99.90;;;;;;5065620;28;20479;-65
2023/07/01 06:36:39;;;;;;;5.10;3.70;;;15.80;99.90;;;;;;5073338;28;20130;-64
2023/07/01 06:39:05;;;;;;;5.18;3.70;;;15.80;99.90;;;;;;5081001;28;20471;-65
2023/07/01 06:41:31;;;;;;;6.03;3.80;;;15.80;99.90;;;;;;5074212;28;20036;-64
2023/07/01 06:43:56;;;;;;;5.63;3.80;;;15.80;99.90;;;;;;5079592;28;20038;-65
2023/07/01 06:46:22;;;;;;;6.60;4.10;;;15.70;99.90;;;;;;5080565;28;20063;-64
2023/07/01 06:48:47;;;;;;;8.15;4.45;;;15.80;99.90;;;;;;5074026;28;20043;-64
2023/07/01 06:51:14;;;;;;;6.28;3.78;;;15.80;99.90;;;;;;5084645;28;20106;-64
2023/07/01 06:53:40;;;;;;;6.25;3.97;;;15.90;99.90;;;;;;5083259;28;20048;-64
2023/07/01 06:56:06;;;;;;;5.75;4.00;;;15.90;99.90;;;;;;5079406;28;20047;-64
2023/07/01 06:58:32;;;;;;;6.22;4.20;;;15.80;99.90;;;;;;5073856;28;20127;-65
2023/07/01 07:00:58;;;;;;;6.40;4.50;;;15.80;99.90;;;;;;5083318;28;20072;-63
2023/07/01 07:03:23;;;;;;;7.60;4.63;;;15.70;99.90;;;;;;5081273;28;20511;-62
2023/07/01 07:05:52;;;;;;;5.20;4.30;;;15.70;99.90;;;;;;5078625;28;20089;-63
2023/07/01 07:08:17;;;;;;;6.38;4.35;;;15.60;99.90;;;;;;5074868;28;20057;-63
2023/07/01 07:10:43;;;;;;;6.90;4.57;;;15.60;99.90;;;;;;5081545;28;20043;-64
2023/07/01 07:13:09;;;;;;;8.43;4.25;;;15.60;99.90;;;;;;5078204;28;20119;-64
2023/07/01 07:15:35;;;;;;;6.88;4.43;;;15.60;99.90;;;;;;5077010;28;20041;-63
2023/07/01 07:18:01;;;;;;;4.72;3.58;;;15.60;99.90;;;;;;5071779;28;20052;-64
2023/07/01 07:20:27;;;;;;;7.60;4.63;;;15.70;99.90;;;;;;5076436;28;20048;-63
2023/07/01 07:22:53;;;;;;;6.95;4.40;;;15.70;99.90;;;;;;5076454;28;20484;-63
2023/07/01 07:25:19;;;;;;;4.75;4.07;;;15.60;99.90;;;;;;5075290;28;20051;-63
2023/07/01 07:27:45;;;;;;;5.93;3.90;;;15.70;99.90;;;;;;5082721;28;20059;-64
2023/07/01 07:30:15;;;;;;;7.35;4.32;;;15.70;99.90;;;;;;5082268;28;20044;-63
2023/07/01 07:32:42;;;;;;;7.57;4.72;;;15.70;99.90;;;;;;5072708;28;20067;-64
2023/07/01 07:35:08;;;;;;;5.03;4.22;;;15.80;99.90;;;;;;5069915;28;20053;-64
2023/07/01 07:37:35;;;;;;;6.53;4.85;;;15.80;99.90;;;;;;5070662;28;20094;-64
2023/07/01 07:40:05;;;;;;;7.25;4.72;;;15.90;99.90;;;;;;5062567;28;20099;-64
2023/07/01 07:42:33;;;;;;;7.30;4.63;;;15.90;99.90;;;;;;5059174;28;20493;-64
2023/07/01 07:44:59;;;;;;;6.25;4.57;;;15.90;99.90;;;;;;5053639;28;20045;-63
2023/07/01 07:47:27;;;;;;;7.40;4.80;;;16.00;99.90;;;;;;5059395;28;20032;-63
2023/07/01 07:49:52;;;;;;;6.18;4.78;;;16.00;99.90;;;;;;5058942;28;20362;-64
2023/07/01 07:52:18;;;;;;;6.53;4.72;;;16.10;99.90;;;;;;5055958;28;20124;-63
2023/07/01 07:54:44;;;;;;;6.07;4.22;;;16.10;99.90;;;;;;5058826;28;20037;-63
2023/07/01 07:57:10;;;;;;;5.60;4.25;;;16.10;99.90;;;;;;5069607;28;20079;-63
2023/07/01 07:59:36;;;;;;;7.90;4.63;;;16.10;99.90;;;;;;5070672;28;20064;-64
2023/07/01 08:02:02;;;;;;;5.95;4.20;;;16.10;99.90;;;;;;5063245;28;20053;-64
2023/07/01 08:04:27;;;;;;;5.07;4.20;;;16.10;99.90;;;;;;5057429;28;20032;-64
2023/07/01 08:06:53;;;;;;;6.80;4.40;;;16.10;99.90;;;;;;5062735;28;20079;-64
2023/07/01 08:09:19;;;;;;;5.75;4.55;;;16.10;99.90;;;;;;5064806;28;20058;-63
2023/07/01 08:11:46;;;;;;;6.55;4.43;;;16.10;99.90;;;;;;5065493;28;20045;-62
2023/07/01 08:14:12;;;;;;;7.85;4.38;;;16.20;99.90;;;;;;5059608;28;20072;-63
2023/07/01 08:16:38;;;;;;;5.60;4.40;;;16.20;99.90;;;;;;5054665;28;20098;-63
2023/07/01 08:19:03;;;;;;;6.18;4.47;;;16.30;99.90;;;;;;5054747;28;20041;-65
2023/07/01 08:21:29;;;;;;;5.70;4.35;;;16.30;99.90;;;;;;5050976;28;20048;-64
2023/07/01 08:23:55;;;;;;;5.32;4.07;;;16.40;99.90;;;;;;5057792;28;20051;-64
2023/07/01 08:26:20;;;;;;;6.25;4.15;;;16.50;99.90;;;;;;5050904;28;20065;-64
2023/07/01 08:28:46;;;;;;;5.35;4.05;;;16.50;99.90;;;;;;5067421;28;20054;-65
2023/07/01 08:31:12;;;;;;;5.13;3.95;;;16.50;99.90;;;;;;5058940;28;20036;-63
2023/07/01 08:33:38;;;;;;;5.30;3.80;;;16.60;99.90;;;;;;5069974;28;20376;-64
2023/07/01 08:36:04;;;;;;;5.38;4.10;;;16.60;99.90;;;;;;5056193;28;20049;-64
2023/07/01 08:38:30;;;;;;;5.22;4.20;;;16.60;99.90;;;;;;5068837;28;20047;-64
2023/07/01 08:41:02;;;;;;;5.40;3.95;;;16.60;99.90;;;;;;5059969;28;20036;-65
2023/07/01 08:43:28;;;;;;;5.90;4.30;;;16.60;99.90;;;;;;5065123;28;20036;-65
2023/07/01 08:46:01;;;;;;;4.47;3.63;;;16.60;99.90;;;;;;5059494;28;20057;-65
2023/07/01 08:48:29;;;;;;;5.15;3.75;;;16.70;99.90;;;;;;5076877;28;20407;-65
2023/07/01 08:51:06;;;;;;;4.97;3.97;;;16.70;99.90;;;;;;5053451;28;20049;-64
2023/07/01 08:53:33;;;;;;;5.03;4.00;;;16.70;99.90;;;;;;5054754;28;20048;-65
2023/07/01 08:55:59;;;;;;;5.45;3.85;;;16.80;99.90;;;;;;5058524;28;20072;-65
2023/07/01 08:58:26;;;;;;;4.63;3.60;;;16.80;99.90;;;;;;5066262;28;20377;-64
2023/07/01 09:00:52;;;;;;;5.40;3.90;;;16.80;99.90;;;;;;5055742;28;20033;-64
2023/07/01 09:03:18;;;;;;;5.40;4.00;;;16.80;99.90;;;;;;5051973;28;20350;-64
2023/07/01 09:05:43;;;;;;;4.72;3.97;;;16.90;99.90;;;;;;5059318;28;20040;-63
2023/07/01 09:08:09;;;;;;;4.78;3.60;;;16.90;99.90;;;;;;5055048;28;20032;-64
2023/07/01 09:10:35;;;;;;;5.45;4.07;;;16.90;99.90;;;;;;5069932;28;20045;-63
2023/07/01 09:13:11;;;;;;;5.78;4.00;;;17.00;99.90;;;;;;5072777;28;20127;-63
2023/07/01 09:15:48;;;;;;;4.53;3.75;;;17.00;99.90;;;;;;5060702;28;20116;-64
2023/07/01 09:18:25;;;;;;;5.00;3.85;;;17.00;99.90;;;;;;5066512;28;20040;-63
2023/07/01 09:20:52;;;;;;;5.60;3.90;;;17.00;99.90;;;;;;5073622;28;20480;-64
2023/07/01 09:23:44;;;;;;;4.43;3.67;;;17.10;99.90;;;;;;5057030;28;20072;-63
2023/07/01 09:26:14;;;;;;;5.65;4.28;;;17.10;99.90;;;;;;5056153;28;20044;-64
2023/07/01 09:28:44;;;;;;;6.38;4.35;;;17.20;99.90;;;;;;5073364;28;20056;-63
2023/07/01 09:31:12;;;;;;;5.47;4.25;;;17.20;99.90;;;;;;5055164;28;20048;-64
2023/07/01 09:33:39;;;;;;;6.78;4.30;;;17.20;99.90;;;;;;5073255;28;20384;-63
2023/07/01 09:36:07;;;;;;;5.38;4.57;;;17.20;99.90;;;;;;5065578;28;20036;-63
2023/07/01 09:38:34;;;;;;;6.72;4.63;;;17.10;99.90;;;;;;5073790;28;20115;-63
2023/07/01 09:41:23;;;;;;;5.68;4.68;;;17.10;99.90;;;;;;5073903;28;20558;-64
2023/07/01 09:43:49;;;;;;;5.88;4.32;;;17.10;99.90;;;;;;5054148;28;20112;-64
2023/07/01 09:46:15;;;;;;;6.15;4.47;;;17.10;99.90;;;;;;5061020;28;20052;-64
2023/07/01 09:48:56;;;;;;;6.13;4.20;;;17.10;99.90;;;;;;5069254;28;20052;-64
2023/07/01 09:51:24;;;;;;;6.15;4.32;;;17.10;99.90;;;;;;5060582;28;20130;-64
2023/07/01 09:53:50;;;;;;;5.60;4.20;;;17.20;99.90;;;;;;5064726;28;20037;-64
2023/07/01 09:56:18;;;;;;;4.82;3.88;;;17.10;99.90;;;;;;5071550;28;20048;-64
2023/07/01 09:58:46;;;;;;;6.93;4.28;;;17.00;99.90;;;;;;5057279;28;20163;-64
2023/07/01 10:01:13;;;;;;;5.57;3.90;;;17.10;99.90;;;;;;5072232;28;20068;-64
2023/07/01 10:03:42;;;;;;;4.97;3.85;;;17.10;99.90;;;;;;5061636;28;20052;-64
2023/07/01 10:06:09;;;;;;;6.70;4.47;;;17.10;99.90;;;;;;5070675;28;20090;-63
2023/07/01 10:08:35;;;;;;;5.20;3.97;;;17.20;99.90;;;;;;5062294;28;20063;-63
2023/07/01 10:11:14;;;;;;;4.95;3.63;;;17.20;99.90;;;;;;5071668;28;20040;-64
2023/07/01 10:14:07;;;;;;;5.18;3.97;;;17.20;99.90;;;;;;5060856;28;20049;-64
2023/07/01 10:16:32;;;;;;;5.32;3.83;;;17.20;99.90;;;;;;5053093;28;20128;-64
2023/07/01 10:19:00;;;;;;;5.50;3.97;;;17.20;99.90;;;;;;5061197;28;20123;-64
2023/07/01 10:21:32;;;;;;;6.05;3.90;;;17.30;99.90;;;;;;5062734;28;20041;-65
2023/07/01 10:24:01;;;;;;;5.13;3.75;;;17.30;99.90;;;;;;5059066;28;20048;-65
2023/07/01 10:26:46;;;;;;;6.22;3.88;;;17.30;99.90;;;;;;5063928;28;20370;-65
2023/07/01 10:29:28;;;;;;;5.38;3.92;;;17.30;99.90;;;;;;5067785;28;20072;-65
2023/07/01 10:32:09;;;;;;;5.72;4.10;;;17.40;99.90;;;;;;5062133;28;20064;-64
2023/07/01 10:34:55;;;;;;;5.15;3.72;;;17.50;99.90;;;;;;5064840;28;20082;-64
2023/07/01 10:37:22;;;;;;;6.18;3.90;;;17.50;99.90;;;;;;5049896;28;20040;-65
2023/07/01 10:39:49;;;;;;;4.35;3.60;;;17.60;99.90;;;;;;5071627;28;20032;-64
2023/07/01 10:42:31;;;;;;;6.07;3.70;;;17.70;99.90;;;;;;5070519;28;20071;-64
2023/07/01 10:45:12;;;;;;;5.30;4.00;;;17.70;99.90;;;;;;5066789;28;20377;-63
2023/07/01 10:47:38;;;;;;;5.32;4.03;;;17.80;99.90;;;;;;5066039;28;20033;-64
2023/07/01 10:50:08;;;;;;;5.38;4.32;;;17.80;99.90;;;;;;5067742;28;20074;-64
2023/07/01 10:53:01;;;;;;;5.85;3.88;;;17.90;99.90;;;;;;5062783;28;20047;-64
2023/07/01 10:55:40;;;;;;;5.15;3.83;;;18.00;99.90;;;;;;5069294;28;20050;-64
2023/07/01 10:58:26;;;;;;;5.50;4.13;;;17.90;99.90;;;;;;5069868;28;20040;-63
2023/07/01 11:00:58;;;;;;;5.72;3.60;;;18.00;99.90;;;;;;5069683;28;20074;-64
2023/07/01 11:03:33;;;;;;;4.43;3.45;;;18.00;99.90;;;;;;5062961;28;20424;-64
2023/07/01 11:06:06;;;;;;;4.28;3.30;;;18.00;99.90;;;;;;5064268;28;20056;-64
2023/07/01 11:08:43;;;;;;;4.72;3.60;;;18.10;99.90;;;;;;5063790;28;20488;-63
2023/07/01 11:11:09;;;;;;;5.15;3.85;;;18.10;99.90;;;;;;5066346;28;20036;-62
2023/07/01 11:13:35;;;;;;;4.75;3.78;;;18.10;99.90;;;;;;5053314;28;20032;-62
2023/07/01 11:16:09;;;;;;;4.85;3.40;;;18.10;99.90;;;;;;5069714;28;20434;-63
2023/07/01 11:18:47;;;;;;;4.28;3.60;;;18.20;99.90;;;;;;5064675;28;20032;-62
2023/07/01 11:21:17;;;;;;;4.60;3.58;;;18.20;99.90;;;;;;5069049;28;20384;-63
2023/07/01 11:23:58;;;;;;;4.43;3.50;;;18.10;99.90;;;;;;5052777;28;20473;-63
2023/07/01 11:26:35;;;;;;;4.25;3.40;;;18.10;99.90;;;;;;5073120;28;20149;-63
2023/07/01 11:29:02;;;;;;;4.75;4.20;;;18.20;99.90;;;;;;5063382;28;20051;-64
2023/07/01 11:31:32;;;;;;;4.30;3.15;;;18.20;99.90;;;;;;5066882;28;20041;-63
2023/07/01 11:33:59;;;;;;;5.18;3.88;;;18.30;99.90;;;;;;5063178;28;20075;-64
2023/07/01 11:36:36;;;;;;;4.57;3.35;;;18.40;99.90;;;;;;5060476;28;20046;-63
2023/07/01 11:39:05;;;;;;;4.32;3.45;;;18.40;99.90;;;;;;5070488;28;20040;-63
2023/07/01 11:41:31;;;;;;;4.60;3.15;;;18.60;99.90;;;;;;5052776;28;20045;-63
2023/07/01 11:43:57;;;;;;;3.72;2.92;;;18.60;99.90;;;;;;5064282;28;20064;-64
2023/07/01 11:46:33;;;;;;;4.03;3.25;;;18.60;99.90;;;;;;5065404;28;20033;-63
2023/07/01 11:49:13;;;;;;;4.43;3.40;;;18.70;99.90;;;;;;5058407;28;20044;-64
2023/07/01 11:51:39;;;;;;;3.97;3.05;;;18.80;99.90;;;;;;5069087;28;20472;-64
2023/07/01 11:54:05;;;;;;;4.22;3.40;;;18.80;99.90;;;;;;5063890;28;20051;-64
2023/07/01 11:56:31;;;;;;;5.32;3.63;;;18.90;99.90;;;;;;5072043;28;20036;-64
2023/07/01 11:58:57;;;;;;;4.22;3.13;;;18.90;99.90;;;;;;5068912;28;20035;-64
2023/07/01 12:01:24;;;;;;;4.57;3.50;;;18.90;99.90;;;;;;5067041;28;20044;-64
2023/07/01 12:03:53;;;;;;;4.10;3.05;;;19.10;99.90;;;;;;5052340;28;20049;-63
2023/07/01 12:06:20;;;;;;;4.10;3.15;;;19.20;99.90;;;;;;5055696;28;20045;-63
2023/07/01 12:08:54;;;;;;;5.07;3.53;;;19.30;99.90;;;;;;5059246;28;20047;-63
2023/07/01 12:11:24;;;;;;;4.53;3.22;;;19.30;99.90;;;;;;5063775;28;20083;-64
2023/07/01 12:13:51;;;;;;;4.30;3.47;;;19.40;99.90;;;;;;5068382;28;20036;-64
2023/07/01 12:16:17;;;;;;;4.60;3.45;;;19.40;99.90;;;;;;5055396;28;20073;-64
2023/07/01 12:18:44;;;;;;;4.68;3.50;;;19.30;99.90;;;;;;5059622;28;20035;-64
2023/07/01 12:21:10;;;;;;;4.82;3.47;;;19.10;99.90;;;;;;5059632;28;20041;-65
2023/07/01 12:23:43;;;;;;;5.88;3.50;;;18.80;99.90;;;;;;5059902;28;20095;-65
2023/07/01 12:26:12;;;;;;;5.25;4.10;;;18.60;99.90;;;;;;5063371;28;20043;-64
2023/07/01 12:28:39;;;;;;;5.38;3.92;;;18.50;99.90;;;;;;5069870;28;20088;-64
2023/07/01 12:31:07;;;;;;;4.90;3.40;;;18.40;99.90;;;;;;5063795;28;20537;-64
2023/07/01 12:33:35;;;;;;;5.32;3.90;;;18.40;99.90;;;;;;5064391;28;20420;-63
2023/07/01 12:36:02;;;;;;;5.40;3.78;;;18.40;99.90;;;;;;5061978;28;20431;-64
2023/07/01 12:38:29;;;;;;;5.95;3.95;;;18.30;99.90;;;;;;5072364;28;20044;-63
2023/07/01 12:40:56;;;;;;;5.72;4.07;;;18.20;99.90;;;;;;5065746;28;20052;-63
2023/07/01 12:43:26;;;;;;;5.53;3.88;;;18.20;99.90;;;;;;5059162;28;20051;-63
2023/07/01 12:45:53;;;;;;;6.00;4.03;;;18.20;99.90;;;;;;5069093;28;20036;-63
2023/07/01 12:48:21;;;;;;;5.53;4.05;;;18.20;99.90;;;;;;5060180;28;20120;-62
2023/07/01 12:50:47;;;;;;;4.97;3.55;;;18.20;99.90;;;;;;5065403;28;20166;-63
2023/07/01 12:53:14;;;;;;;6.40;4.35;;;18.20;99.90;;;;;;5076465;28;20044;-62